createdAt,value
2018-06-18T00:01:34.468Z,2.27
2018-06-18T00:04:02.979Z,1.80
2018-06-18T00:06:31.423Z,2.80
2018-06-18T00:09:00.009Z,1.90
2018-06-18T00:11:28.575Z,2.60
2018-06-18T00:13:57.005Z,2.50
2018-06-18T00:16:25.427Z,2.03
2018-06-18T00:18:53.916Z,1.70
2018-06-18T00:21:22.707Z,2.23
2018-06-18T00:23:51.087Z,1.90
2018-06-18T00:26:19.591Z,2.30
2018-06-18T00:28:48.003Z,1.87
2018-06-18T00:31:16.479Z,1.57
2018-06-18T00:33:45.157Z,1.53
2018-06-18T00:36:13.571Z,2.33
2018-06-18T00:38:42.056Z,1.83
2018-06-18T00:41:10.568Z,2.33
2018-06-18T00:43:39.046Z,1.60
2018-06-18T00:46:07.732Z,2.07
2018-06-18T00:48:36.142Z,1.93
2018-06-18T00:51:04.668Z,2.20
2018-06-18T00:53:33.139Z,2.33
2018-06-18T00:56:15.600Z,1.73
2018-06-18T00:58:44.303Z,2.00
2018-06-18T01:01:13.275Z,1.80
2018-06-18T01:03:42.011Z,1.80
2018-06-18T01:06:10.447Z,2.17
2018-06-18T01:08:38.955Z,2.20
2018-06-18T01:11:07.474Z,2.33
2018-06-18T01:13:35.867Z,2.70
2018-06-18T01:16:04.627Z,1.57
2018-06-18T01:18:33.895Z,2.47
2018-06-18T01:21:02.385Z,2.20
2018-06-18T01:25:43.423Z,1.83
2018-06-18T01:28:11.959Z,1.63
2018-06-18T01:30:40.439Z,2.63
2018-06-18T01:33:08.867Z,2.20
2018-06-18T01:35:37.303Z,1.83
2018-06-18T01:38:05.960Z,2.27
2018-06-18T01:40:34.371Z,1.80
2018-06-18T01:43:02.901Z,2.17
2018-06-18T01:45:31.575Z,1.73
2018-06-18T01:48:00.052Z,1.60
2018-06-18T01:50:28.479Z,1.80
2018-06-18T01:52:56.887Z,1.87
2018-06-18T01:55:25.288Z,1.97
2018-06-18T01:57:53.823Z,2.53
2018-06-18T02:00:22.256Z,2.67
2018-06-18T02:02:50.643Z,2.30
2018-06-18T02:05:19.179Z,1.90
2018-06-18T02:07:47.653Z,2.73
2018-06-18T02:10:16.128Z,2.30
2018-06-18T02:12:44.612Z,1.93
2018-06-18T02:15:13.019Z,1.50
2018-06-18T02:17:41.559Z,1.70
2018-06-18T02:20:10.020Z,2.30
2018-06-18T02:22:38.527Z,2.53
2018-06-18T02:25:07.009Z,2.30
2018-06-18T02:27:40.719Z,2.13
2018-06-18T02:30:14.495Z,2.60
2018-06-18T02:32:48.279Z,2.60
2018-06-18T02:35:21.927Z,2.47
2018-06-18T02:37:55.579Z,2.37
2018-06-18T02:40:29.356Z,2.17
2018-06-18T02:42:57.803Z,2.80
2018-06-18T02:45:26.236Z,2.00
2018-06-18T02:47:54.961Z,2.40
2018-06-18T02:50:23.470Z,2.07
2018-06-18T02:52:51.963Z,3.47
2018-06-18T02:55:20.475Z,1.93
2018-06-18T02:57:48.984Z,2.70
2018-06-18T03:00:17.432Z,2.10
2018-06-18T03:02:45.934Z,2.30
2018-06-18T03:05:14.671Z,2.27
2018-06-18T03:07:43.150Z,2.90
2018-06-18T03:10:11.651Z,2.30
2018-06-18T03:12:40.295Z,3.10
2018-06-18T03:15:08.731Z,2.63
2018-06-18T03:17:37.138Z,2.80
2018-06-18T03:20:10.951Z,2.07
2018-06-18T03:22:44.674Z,2.50
2018-06-18T03:25:18.393Z,2.00
2018-06-18T03:27:52.024Z,2.23
2018-06-18T03:30:20.469Z,2.80
2018-06-18T03:32:49.975Z,3.17
2018-06-18T03:35:18.474Z,2.20
2018-06-18T03:37:46.971Z,2.07
2018-06-18T03:40:15.469Z,3.00
2018-06-18T03:42:44.723Z,2.37
2018-06-18T03:45:34.155Z,2.90
2018-06-18T03:48:06.803Z,2.20
2018-06-18T03:50:35.565Z,2.17
2018-06-18T03:53:04.131Z,1.70
2018-06-18T03:55:35.911Z,2.93
2018-06-18T03:58:08.691Z,3.30
2018-06-18T04:01:05.743Z,2.60
2018-06-18T04:03:39.499Z,3.17
2018-06-18T04:06:13.211Z,3.03
2018-06-18T04:08:41.728Z,3.03
2018-06-18T04:11:15.476Z,2.97
2018-06-18T04:13:44.112Z,2.77
2018-06-18T04:16:12.719Z,2.40
2018-06-18T04:18:46.419Z,2.53
2018-06-18T04:21:14.839Z,2.40
2018-06-18T04:23:43.323Z,2.83
2018-06-18T04:26:11.835Z,2.63
2018-06-18T04:28:40.307Z,2.83
2018-06-18T04:31:08.852Z,2.10
2018-06-18T04:33:40.076Z,1.80
2018-06-18T04:36:08.608Z,3.60
2018-06-18T04:38:37.040Z,2.30
2018-06-18T04:41:05.464Z,2.13
2018-06-18T04:44:41.053Z,2.10
2018-06-18T04:47:14.791Z,2.33
2018-06-18T04:49:48.416Z,2.97
2018-06-18T04:52:16.907Z,1.80
2018-06-18T04:54:45.331Z,2.20
2018-06-18T04:57:13.753Z,7.73
2018-06-18T04:59:45.468Z,2.60
2018-06-18T05:02:13.847Z,1.60
2018-06-18T05:04:42.292Z,1.87
2018-06-18T05:07:10.805Z,1.87
2018-06-18T05:09:48.403Z,2.60
2018-06-18T05:12:16.947Z,2.40
2018-06-18T05:14:45.327Z,2.17
2018-06-18T05:17:13.959Z,2.07
2018-06-18T05:19:42.451Z,1.63
2018-06-18T05:22:10.864Z,2.27
2018-06-18T05:24:39.363Z,2.33
2018-06-18T05:27:10.776Z,1.80
2018-06-18T05:29:39.695Z,2.30
2018-06-18T05:32:08.099Z,2.50
2018-06-18T05:34:36.520Z,2.00
2018-06-18T05:38:11.587Z,2.13
2018-06-18T05:40:40.051Z,1.80
2018-06-18T05:43:08.726Z,2.90
2018-06-18T05:45:37.095Z,3.07
2018-06-18T05:48:05.525Z,2.23
2018-06-18T05:50:33.981Z,3.00
2018-06-18T05:53:02.420Z,2.67
2018-06-18T05:55:31.291Z,2.43
2018-06-18T05:57:59.835Z,1.83
2018-06-18T06:00:28.319Z,1.90
2018-06-18T06:02:56.814Z,1.97
2018-06-18T06:05:25.204Z,1.70
2018-06-18T06:07:53.972Z,1.87
2018-06-18T06:10:22.499Z,1.97
2018-06-18T06:12:51.016Z,1.73
2018-06-18T06:15:19.498Z,1.60
2018-06-18T06:17:47.915Z,2.03
2018-06-18T06:20:16.487Z,2.33
2018-06-18T06:22:44.951Z,1.93
2018-06-18T06:25:13.499Z,1.67
2018-06-18T06:27:41.951Z,1.80
2018-06-18T06:30:10.472Z,1.90
2018-06-18T06:32:38.944Z,1.87
2018-06-18T06:35:27.264Z,1.73
2018-06-18T06:37:56.463Z,1.70
2018-06-18T06:40:25.658Z,2.13
2018-06-18T06:42:54.244Z,2.60
2018-06-18T06:45:22.975Z,2.03
2018-06-18T06:47:51.654Z,2.33
2018-06-18T06:50:20.119Z,1.63
2018-06-18T06:52:48.626Z,1.73
2018-06-18T06:55:17.111Z,1.40
2018-06-18T06:57:45.632Z,1.70
2018-06-18T07:00:14.560Z,1.47
2018-06-18T07:02:42.955Z,1.50
2018-06-18T07:05:11.347Z,1.63
2018-06-18T07:07:39.833Z,1.47
2018-06-18T07:10:08.659Z,1.60
2018-06-18T07:12:37.280Z,1.87
2018-06-18T07:15:06.200Z,1.20
2018-06-18T07:17:34.827Z,1.40
2018-06-18T07:20:03.271Z,1.13
2018-06-18T07:22:31.797Z,1.87
2018-06-18T07:25:00.227Z,2.10
2018-06-18T07:27:28.827Z,1.23
2018-06-18T07:29:57.223Z,1.47
2018-06-18T07:32:25.711Z,1.43
2018-06-18T07:34:54.300Z,1.77
2018-06-18T07:37:22.681Z,1.80
2018-06-18T07:39:51.131Z,2.03
2018-06-18T07:42:19.591Z,2.33
2018-06-18T07:44:48.203Z,1.40
2018-06-18T07:47:16.700Z,1.90
2018-06-18T07:49:45.343Z,2.10
2018-06-18T07:52:13.839Z,1.90
2018-06-18T07:54:42.267Z,2.37
2018-06-18T07:57:10.760Z,2.40
2018-06-18T07:59:39.445Z,2.10
2018-06-18T08:02:07.987Z,2.13
2018-06-18T08:04:36.419Z,1.77
2018-06-18T08:07:04.831Z,2.00
2018-06-18T08:09:33.484Z,1.50
2018-06-18T08:12:01.951Z,1.80
2018-06-18T08:14:30.435Z,2.20
2018-06-18T08:16:58.960Z,1.70
2018-06-18T08:19:27.423Z,2.37
2018-06-18T08:21:55.795Z,2.00
2018-06-18T08:24:24.307Z,2.40
2018-06-18T08:26:52.786Z,1.60
2018-06-18T08:29:21.327Z,1.93
2018-06-18T08:31:49.768Z,1.57
2018-06-18T08:34:18.187Z,1.33
2018-06-18T08:36:46.696Z,1.13
2018-06-18T08:39:15.079Z,1.53
2018-06-18T08:41:43.587Z,1.40
2018-06-18T08:44:12.050Z,1.80
2018-06-18T08:46:40.551Z,1.23
2018-06-18T08:49:09.680Z,1.60
2018-06-18T08:51:43.295Z,1.70
2018-06-18T08:54:17.015Z,1.20
2018-06-18T08:56:50.759Z,1.70
2018-06-18T08:59:24.432Z,1.60
2018-06-18T09:01:52.986Z,1.60
2018-06-18T09:04:26.733Z,1.60
2018-06-18T09:06:59.347Z,1.60
2018-06-18T09:09:27.891Z,1.60
2018-06-18T09:11:56.503Z,2.07
2018-06-18T09:14:24.903Z,1.67
2018-06-18T09:16:53.431Z,1.23
2018-06-18T09:19:21.847Z,1.70
2018-06-18T09:21:50.467Z,1.97
2018-06-18T09:24:21.314Z,1.83
2018-06-18T09:26:52.620Z,2.23
2018-06-18T09:29:21.031Z,1.70
2018-06-18T09:31:49.471Z,1.70
2018-06-18T09:34:18.028Z,1.60
2018-06-18T09:36:46.428Z,1.50
2018-06-18T09:39:14.876Z,1.80
2018-06-18T09:41:43.249Z,1.90
2018-06-18T09:44:11.643Z,1.90
2018-06-18T09:46:40.152Z,2.50
2018-06-18T09:49:13.793Z,2.17
2018-06-18T09:51:47.550Z,1.40
2018-06-18T09:54:21.299Z,1.60
2018-06-18T09:56:55.092Z,1.23
2018-06-18T09:59:38.911Z,1.97
2018-06-18T10:02:07.879Z,1.53
2018-06-18T10:04:36.352Z,1.50
2018-06-18T10:07:04.887Z,1.70
2018-06-18T10:09:33.327Z,1.47
2018-06-18T10:12:02.016Z,2.13
2018-06-18T10:14:30.491Z,1.90
2018-06-18T10:16:58.931Z,1.90
2018-06-18T10:19:27.423Z,2.20
2018-06-18T10:21:55.928Z,1.67
2018-06-18T10:24:24.605Z,1.40
2018-06-18T10:26:53.091Z,1.77
2018-06-18T10:29:21.517Z,1.50
2018-06-18T10:31:50.010Z,1.63
2018-06-18T10:34:23.855Z,1.70
2018-06-18T10:36:57.735Z,2.13
2018-06-18T10:39:31.335Z,1.53
2018-06-18T10:42:05.179Z,1.87
2018-06-18T10:44:33.659Z,1.40
2018-06-18T10:47:02.328Z,1.40
2018-06-18T10:49:30.751Z,1.73
2018-06-18T10:51:59.235Z,1.97
2018-06-18T10:54:27.758Z,1.60
2018-06-18T10:56:56.311Z,1.47
2018-06-18T10:59:24.853Z,1.83
2018-06-18T11:01:53.342Z,2.70
2018-06-18T11:04:27.315Z,1.60
2018-06-18T11:06:55.691Z,1.33
2018-06-18T11:09:24.063Z,1.50
2018-06-18T11:11:53.079Z,1.60
2018-06-18T11:14:21.523Z,1.53
2018-06-18T11:17:57.475Z,1.80
2018-06-18T11:20:31.159Z,1.87
2018-06-18T11:23:05.133Z,2.00
2018-06-18T11:26:36.591Z,1.80
2018-06-18T11:29:05.255Z,2.20
2018-06-18T11:31:33.732Z,2.70
2018-06-18T11:34:02.407Z,1.53
2018-06-18T11:36:30.912Z,1.73
2018-06-18T11:38:59.311Z,1.90
2018-06-18T11:41:28.059Z,1.90
2018-06-18T11:43:56.467Z,1.63
2018-06-18T11:46:25.055Z,2.60
2018-06-18T11:48:53.568Z,1.40
2018-06-18T11:51:22.076Z,1.60
2018-06-18T11:53:50.612Z,1.70
2018-06-18T11:56:19.051Z,1.70
2018-06-18T11:58:52.890Z,1.90
2018-06-18T12:01:26.705Z,1.07
2018-06-18T12:04:00.495Z,1.53
2018-06-18T12:06:34.071Z,1.00
2018-06-18T12:09:07.816Z,1.60
2018-06-18T12:11:36.377Z,1.50
2018-06-18T12:14:04.828Z,1.13
2018-06-18T12:16:36.471Z,1.37
2018-06-18T12:19:05.750Z,1.47
2018-06-18T12:21:34.647Z,1.33
2018-06-18T12:24:03.095Z,1.47
2018-06-18T12:26:32.015Z,1.40
2018-06-18T12:29:00.508Z,1.70
2018-06-18T12:31:28.999Z,1.43
2018-06-18T12:33:57.776Z,1.30
2018-06-18T12:36:26.279Z,0.90
2018-06-18T12:38:54.711Z,1.20
2018-06-18T12:41:23.169Z,1.30
2018-06-18T12:43:55.515Z,0.80
2018-06-18T12:46:29.218Z,1.00
2018-06-18T12:49:02.917Z,1.10
2018-06-18T12:51:36.544Z,1.13
2018-06-18T12:54:10.147Z,0.90
2018-06-18T12:56:43.957Z,1.10
2018-06-18T12:59:12.415Z,1.13
2018-06-18T13:01:46.471Z,1.40
2018-06-18T13:04:14.946Z,1.30
2018-06-18T13:06:43.359Z,1.00
2018-06-18T13:09:11.767Z,1.20
2018-06-18T13:11:40.711Z,1.00
2018-06-18T13:14:09.103Z,0.83
2018-06-18T13:16:37.503Z,0.83
2018-06-18T13:19:06.160Z,0.80
2018-06-18T13:21:34.604Z,1.00
2018-06-18T13:24:03.284Z,1.30
2018-06-18T13:26:31.696Z,1.00
2018-06-18T13:29:00.150Z,1.30
2018-06-18T13:31:28.727Z,1.63
2018-06-18T13:33:57.103Z,1.40
2018-06-18T13:36:25.798Z,1.10
2018-06-18T13:38:59.380Z,1.23
2018-06-18T13:41:33.039Z,1.80
2018-06-18T13:44:06.823Z,1.10
2018-06-18T13:46:40.620Z,1.40
2018-06-18T13:49:09.026Z,1.27
2018-06-18T13:51:37.451Z,1.17
2018-06-18T13:54:05.944Z,2.17
2018-06-18T13:56:34.411Z,1.43
2018-06-18T13:59:02.855Z,1.50
2018-06-18T14:01:31.283Z,1.47
2018-06-18T14:03:59.713Z,2.03
2018-06-18T14:06:28.331Z,1.60
2018-06-18T14:08:56.759Z,1.47
2018-06-18T14:11:25.472Z,1.87
2018-06-18T14:13:54.013Z,1.10
2018-06-18T14:16:22.489Z,1.43
2018-06-18T14:18:50.979Z,1.40
2018-06-18T14:21:19.396Z,1.10
2018-06-18T14:23:48.087Z,0.93
2018-06-18T14:26:16.552Z,2.10
2018-06-18T14:28:44.987Z,1.07
2018-06-18T14:31:18.642Z,1.33
2018-06-18T14:33:52.343Z,1.20
2018-06-18T14:36:26.124Z,1.60
2018-06-18T14:38:59.891Z,1.57
2018-06-18T14:41:28.304Z,1.57
2018-06-18T14:43:56.705Z,1.30
2018-06-18T14:46:25.467Z,1.30
2018-06-18T14:48:53.942Z,1.70
2018-06-18T14:51:22.395Z,1.67
2018-06-18T14:53:50.811Z,2.03
2018-06-18T14:56:24.176Z,1.40
2018-06-18T14:59:05.191Z,1.47
2018-06-18T15:01:33.667Z,1.47
2018-06-18T15:04:02.208Z,1.30
2018-06-18T15:06:30.615Z,1.33
2018-06-18T15:08:59.240Z,1.70
2018-06-18T15:11:27.651Z,1.37
2018-06-18T15:13:56.279Z,1.43
2018-06-18T15:16:30.421Z,1.83
2018-06-18T15:19:00.016Z,1.60
2018-06-18T15:21:29.699Z,1.47
2018-06-18T15:23:59.451Z,1.20
2018-06-18T15:26:28.243Z,1.77
2018-06-18T15:28:56.743Z,1.40
2018-06-18T15:31:25.217Z,1.30
2018-06-18T15:33:53.643Z,1.13
2018-06-18T15:36:22.183Z,0.97
2018-06-18T15:38:50.628Z,1.20
2018-06-18T15:41:19.059Z,0.80
2018-06-18T15:43:47.536Z,1.17
2018-06-18T15:46:16.459Z,1.60
2018-06-18T15:48:44.920Z,1.40
2018-06-18T15:51:13.379Z,1.27
2018-06-18T15:53:41.879Z,1.27
2018-06-18T15:56:10.411Z,1.30
2018-06-18T15:58:39.027Z,1.00
2018-06-18T16:01:07.439Z,1.43
2018-06-18T16:03:35.847Z,1.20
2018-06-18T16:06:04.407Z,1.20
2018-06-18T16:08:32.799Z,1.50
2018-06-18T16:11:01.399Z,1.40
2018-06-18T16:13:29.904Z,1.10
2018-06-18T16:15:58.397Z,1.23
2018-06-18T16:18:26.840Z,1.70
2018-06-18T16:20:55.242Z,1.50
2018-06-18T16:23:23.712Z,1.67
2018-06-18T16:25:52.184Z,1.50
2018-06-18T16:28:20.596Z,1.00
2018-06-18T16:30:49.079Z,1.47
2018-06-18T16:33:17.598Z,1.43
2018-06-18T16:35:46.233Z,1.57
2018-06-18T16:38:14.668Z,1.77
2018-06-18T16:40:43.171Z,1.27
2018-06-18T16:43:11.674Z,1.30
2018-06-18T16:45:40.207Z,1.60
2018-06-18T16:48:08.815Z,1.77
2018-06-18T16:50:37.265Z,1.30
2018-06-18T16:53:05.958Z,1.60
2018-06-18T16:55:34.444Z,1.60
2018-06-18T16:58:03.171Z,1.67
2018-06-18T17:00:32.047Z,1.70
2018-06-18T17:03:00.435Z,1.63
2018-06-18T17:05:28.914Z,1.43
2018-06-18T17:07:57.424Z,1.53
2018-06-18T17:10:25.920Z,1.57
2018-06-18T17:12:54.562Z,1.50
2018-06-18T17:15:23.116Z,1.90
2018-06-18T17:17:51.611Z,1.87
2018-06-18T17:20:20.024Z,1.43
2018-06-18T17:22:48.408Z,1.50
2018-06-18T17:25:17.254Z,1.23
2018-06-18T17:27:45.783Z,1.70
2018-06-18T17:30:14.199Z,1.17
2018-06-18T17:32:42.682Z,1.70
2018-06-18T17:35:11.071Z,1.30
2018-06-18T17:37:39.749Z,1.60
2018-06-18T17:40:08.299Z,1.13
2018-06-18T17:42:36.707Z,1.70
2018-06-18T17:45:05.249Z,1.73
2018-06-18T17:47:33.759Z,2.13
2018-06-18T17:50:02.281Z,1.70
2018-06-18T17:52:30.694Z,1.50
2018-06-18T17:54:59.200Z,1.80
2018-06-18T17:57:27.631Z,2.00
2018-06-18T17:59:56.063Z,1.40
2018-06-18T18:02:24.595Z,1.70
2018-06-18T18:04:56.718Z,2.10
2018-06-18T18:07:26.347Z,1.60
2018-06-18T18:09:54.907Z,1.63
2018-06-18T18:12:23.364Z,2.30
2018-06-18T18:14:51.908Z,1.57
2018-06-18T18:17:20.463Z,1.57
2018-06-18T18:19:49.280Z,1.83
2018-06-18T18:22:17.780Z,1.73
2018-06-18T18:24:46.349Z,1.70
2018-06-18T18:27:14.995Z,2.03
2018-06-18T18:29:43.443Z,1.10
2018-06-18T18:32:11.983Z,2.20
2018-06-18T18:34:41.319Z,1.20
2018-06-18T18:37:09.736Z,1.90
2018-06-18T18:39:38.257Z,1.50
2018-06-18T18:42:06.791Z,1.60
2018-06-18T18:44:35.490Z,1.60
2018-06-18T18:47:03.980Z,1.60
2018-06-18T18:49:32.443Z,1.70
2018-06-18T18:52:00.940Z,1.37
2018-06-18T18:55:42.906Z,1.53
2018-06-18T18:58:23.260Z,1.80
2018-06-18T19:00:52.368Z,2.07
2018-06-18T19:03:22.808Z,1.67
2018-06-18T19:05:51.980Z,1.43
2018-06-18T19:08:28.791Z,1.63
2018-06-18T19:10:59.216Z,1.30
2018-06-18T19:13:31.634Z,1.60
2018-06-18T19:16:00.487Z,1.40
2018-06-18T19:18:29.559Z,1.47
2018-06-18T19:21:08.424Z,1.70
2018-06-18T19:23:37.038Z,1.63
2018-06-18T19:26:05.748Z,1.50
2018-06-18T19:28:35.050Z,1.77
2018-06-18T19:31:09.539Z,1.20
2018-06-18T19:34:45.215Z,0.90
2018-06-18T19:37:13.735Z,1.43
2018-06-18T19:39:44.607Z,1.43
2018-06-18T19:42:13.960Z,1.80
2018-06-18T19:44:43.613Z,2.00
2018-06-18T19:47:33.585Z,1.77
2018-06-18T19:50:01.996Z,1.70
2018-06-18T19:52:30.520Z,1.77
2018-06-18T19:55:10.599Z,2.40
2018-06-18T19:57:39.014Z,1.47
2018-06-18T20:00:07.509Z,1.70
2018-06-18T20:02:36.020Z,1.70
2018-06-18T20:05:09.880Z,1.63
2018-06-18T20:07:40.744Z,1.93
2018-06-18T20:10:09.232Z,1.50
2018-06-18T20:12:37.696Z,1.87
2018-06-18T20:15:06.333Z,1.70
2018-06-18T20:17:34.799Z,2.10
2018-06-18T20:20:03.308Z,2.23
2018-06-18T20:22:31.759Z,2.37
2018-06-18T20:25:00.300Z,1.80
2018-06-18T20:27:28.768Z,2.37
2018-06-18T20:29:57.255Z,2.00
2018-06-18T20:32:25.947Z,2.47
2018-06-18T20:34:54.647Z,2.03
2018-06-18T20:37:23.144Z,2.80
2018-06-18T20:39:51.579Z,2.20
2018-06-18T20:42:20.255Z,2.20
2018-06-18T20:44:48.695Z,2.40
2018-06-18T20:47:17.190Z,1.70
2018-06-18T20:49:45.603Z,1.80
2018-06-18T20:52:14.156Z,2.50
2018-06-18T20:54:42.598Z,1.93
2018-06-18T20:57:11.487Z,2.20
2018-06-18T20:59:39.995Z,2.80
2018-06-18T21:02:08.511Z,2.40
2018-06-18T21:04:36.996Z,2.67
2018-06-18T21:07:05.693Z,1.80
2018-06-18T21:09:34.176Z,2.00
2018-06-18T21:12:02.704Z,2.13
2018-06-18T21:14:31.180Z,2.10
2018-06-18T21:16:59.675Z,2.07
2018-06-18T21:19:28.196Z,2.77
2018-06-18T21:21:56.831Z,2.40
2018-06-18T21:24:25.251Z,2.87
2018-06-18T21:26:53.649Z,2.60
2018-06-18T21:29:22.138Z,2.60
2018-06-18T21:31:50.679Z,2.93
2018-06-18T21:34:19.499Z,2.30
2018-06-18T21:36:48.031Z,1.90
2018-06-18T21:39:16.520Z,2.37
2018-06-18T21:41:45.020Z,2.80
2018-06-18T21:44:18.616Z,2.43
2018-06-18T21:46:47.035Z,2.90
2018-06-18T21:49:15.498Z,2.60
2018-06-18T21:51:44.080Z,1.90
2018-06-18T21:54:12.507Z,2.47
2018-06-18T21:56:40.947Z,2.37
2018-06-18T21:59:09.391Z,2.50
2018-06-18T22:01:42.696Z,3.20
2018-06-18T22:04:11.355Z,2.43
2018-06-18T22:06:39.827Z,3.53
2018-06-18T22:09:16.648Z,3.57
2018-06-18T22:11:48.208Z,2.77
2018-06-18T22:14:16.791Z,3.10
2018-06-18T22:16:45.305Z,3.80
2018-06-18T22:19:13.671Z,3.13
2018-06-18T22:21:42.115Z,2.80
2018-06-18T22:24:10.563Z,3.47
2018-06-18T22:26:39.111Z,3.50
2018-06-18T22:29:07.907Z,3.40
2018-06-18T22:31:36.559Z,4.00
2018-06-18T22:34:05.099Z,3.83
2018-06-18T22:36:33.539Z,3.70
2018-06-18T22:39:02.168Z,3.03
2018-06-18T22:41:30.682Z,3.20
2018-06-18T22:43:59.207Z,3.30
2018-06-18T22:46:28.147Z,3.43
2018-06-18T22:48:56.568Z,4.10
2018-06-18T22:51:25.051Z,3.20
2018-06-18T22:53:53.594Z,2.87
2018-06-18T22:56:22.060Z,3.60
2018-06-18T22:58:50.559Z,3.20
2018-06-18T23:01:19.044Z,3.50
2018-06-18T23:03:47.547Z,3.63
2018-06-18T23:06:16.059Z,3.20
2018-06-18T23:08:44.511Z,3.40
2018-06-18T23:11:13.042Z,3.13
2018-06-18T23:13:41.547Z,2.93
2018-06-18T23:16:10.787Z,3.50
2018-06-18T23:18:39.213Z,3.40
2018-06-18T23:21:07.681Z,3.40
2018-06-18T23:23:36.239Z,3.73
2018-06-18T23:26:04.807Z,4.03
2018-06-18T23:28:37.523Z,3.23
2018-06-18T23:31:06.193Z,3.53
2018-06-18T23:33:34.703Z,3.70
2018-06-18T23:36:03.423Z,3.30
2018-06-18T23:38:31.983Z,4.10
2018-06-18T23:41:00.851Z,3.13
2018-06-18T23:43:29.311Z,3.70
2018-06-18T23:45:58.067Z,3.63
2018-06-18T23:48:26.569Z,3.77
2018-06-18T23:50:55.169Z,2.93
2018-06-18T23:53:23.591Z,3.43
2018-06-18T23:55:52.076Z,3.90
2018-06-18T23:58:20.562Z,3.40
